EJU91BJ EGKK-LIRN
Flight info
| Callsign | EJU91BJ |
|---|---|
| Flight time | N/A |
| Altitude | 37000 |
| Route | BOGNA L612 HAWKE UL612 OGULO DCT OKASI DCT OKEKO DCT MOU DCT MADIV DCT MOKIP DCT TUFTA DCT KOGAS DCT MEDAM DCT NITAM DCT MOGBO DCT MAREL DCT EVULI DCT ERIKA |
| Aircraft | A320/M-SDE2E3FGHIJ1RWXYZ/LB1 |
Departure
| Time | 2026-04-14 14:54 |
|---|---|
| Airport | London Gatwick Airport (EGKK) |
Arrival
| Time | N/A |
|---|---|
| Airport | Naples International Airport (LIRN) |
| Time | Latitude | Longitude | Altitude | Speed | Heading |
|---|---|---|---|---|---|
| 2026-04-14 14:21 | 51.15590 | -0.17621 | 195 ft | 0 kts | 347° |
| 2026-04-14 14:40 | 51.15578 | -0.17617 | 195 ft | 2 kts | 348° |
| 2026-04-14 14:40 | 51.15563 | -0.17611 | 195 ft | 2 kts | 347° |
| 2026-04-14 14:40 | 51.15547 | -0.17605 | 194 ft | 2 kts | 354° |
| 2026-04-14 14:41 | 51.15531 | -0.17611 | 195 ft | 2 kts | 33° |
| 2026-04-14 14:41 | 51.15520 | -0.17630 | 195 ft | 2 kts | 68° |
| 2026-04-14 14:41 | 51.15518 | -0.17642 | 195 ft | 1 kts | 82° |
| 2026-04-14 14:41 | 51.15517 | -0.17648 | 195 ft | 0 kts | 79° |
| 2026-04-14 14:45 | 51.15517 | -0.17647 | 195 ft | 0 kts | 79° |
| 2026-04-14 14:45 | 51.15520 | -0.17626 | 195 ft | 3 kts | 79° |
| 2026-04-14 14:45 | 51.15527 | -0.17564 | 194 ft | 7 kts | 79° |
| 2026-04-14 14:46 | 51.15535 | -0.17468 | 193 ft | 8 kts | 108° |
| 2026-04-14 14:46 | 51.15478 | -0.17416 | 191 ft | 11 kts | 169° |
| 2026-04-14 14:46 | 51.15385 | -0.17383 | 188 ft | 14 kts | 167° |
| 2026-04-14 14:46 | 51.15277 | -0.17342 | 186 ft | 11 kts | 159° |
| 2026-04-14 14:47 | 51.15225 | -0.17296 | 185 ft | 5 kts | 146° |
| 2026-04-14 14:47 | 51.15187 | -0.17248 | 184 ft | 7 kts | 121° |
| 2026-04-14 14:47 | 51.15183 | -0.17170 | 183 ft | 3 kts | 80° |
| 2026-04-14 14:47 | 51.15187 | -0.17130 | 182 ft | 3 kts | 78° |
| 2026-04-14 14:48 | 51.15194 | -0.17085 | 182 ft | 4 kts | 78° |
| 2026-04-14 14:48 | 51.15202 | -0.17025 | 182 ft | 5 kts | 77° |
| 2026-04-14 14:48 | 51.15211 | -0.16961 | 183 ft | 2 kts | 78° |
| 2026-04-14 14:48 | 51.15212 | -0.16956 | 183 ft | 0 kts | 78° |
| 2026-04-14 14:52 | 51.15217 | -0.16918 | 184 ft | 6 kts | 78° |
| 2026-04-14 14:52 | 51.15216 | -0.16832 | 186 ft | 7 kts | 121° |
| 2026-04-14 14:52 | 51.15176 | -0.16794 | 187 ft | 6 kts | 169° |
| 2026-04-14 14:52 | 51.15125 | -0.16812 | 188 ft | 6 kts | 205° |
| 2026-04-14 14:53 | 51.15112 | -0.16866 | 187 ft | 8 kts | 258° |
| 2026-04-14 14:53 | 51.15069 | -0.17185 | 187 ft | 63 kts | 256° |
| 2026-04-14 14:53 | 51.14918 | -0.18254 | 196 ft | 127 kts | 258° |
| 2026-04-14 14:53 | 51.14682 | -0.19984 | 355 ft | 165 kts | 255° |
| 2026-04-14 14:54 | 51.14420 | -0.21903 | 918 ft | 172 kts | 251° |
| 2026-04-14 14:54 | 51.14126 | -0.23871 | 1484 ft | 180 kts | 250° |
| 2026-04-14 14:54 | 51.13813 | -0.26021 | 1882 ft | 196 kts | 252° |
| 2026-04-14 14:54 | 51.13490 | -0.28393 | 2189 ft | 219 kts | 252° |
| 2026-04-14 14:55 | 51.13142 | -0.30953 | 2849 ft | 225 kts | 253° |
| 2026-04-14 14:55 | 51.12803 | -0.33483 | 3739 ft | 222 kts | 253° |
| 2026-04-14 14:55 | 51.12458 | -0.35984 | 4459 ft | 224 kts | 253° |
| 2026-04-14 14:55 | 51.12098 | -0.38549 | 4883 ft | 224 kts | 251° |
| 2026-04-14 14:56 | 51.09975 | -0.41969 | 4985 ft | 217 kts | 191° |
| 2026-04-14 14:56 | 51.08402 | -0.41972 | 4988 ft | 218 kts | 177° |
| 2026-04-14 14:56 | 51.06799 | -0.41738 | 4991 ft | 229 kts | 177° |
| 2026-04-14 14:57 | 51.05051 | -0.41504 | 4990 ft | 247 kts | 177° |
| 2026-04-14 14:57 | 51.03255 | -0.41268 | 4988 ft | 249 kts | 177° |
| 2026-04-14 14:57 | 51.01447 | -0.41034 | 4987 ft | 250 kts | 177° |
| 2026-04-14 14:57 | 50.99634 | -0.40800 | 4988 ft | 250 kts | 177° |
| 2026-04-14 14:58 | 50.97806 | -0.40567 | 5302 ft | 257 kts | 178° |
| 2026-04-14 14:58 | 50.95961 | -0.40330 | 5813 ft | 254 kts | 178° |
| 2026-04-14 14:58 | 50.94127 | -0.40098 | 5985 ft | 255 kts | 178° |
| 2026-04-14 14:58 | 50.92298 | -0.39868 | 5990 ft | 255 kts | 178° |
| 2026-04-14 14:59 | 50.90456 | -0.39636 | 5988 ft | 255 kts | 178° |
| 2026-04-14 14:59 | 50.88609 | -0.39403 | 5988 ft | 255 kts | 178° |
| 2026-04-14 14:59 | 50.86802 | -0.39175 | 5991 ft | 255 kts | 178° |
| 2026-04-14 14:59 | 50.84968 | -0.38943 | 5992 ft | 255 kts | 177° |
| 2026-04-14 15:00 | 50.83164 | -0.38321 | 5988 ft | 257 kts | 162° |
| 2026-04-14 15:00 | 50.81535 | -0.36978 | 5991 ft | 260 kts | 151° |
| 2026-04-14 15:00 | 50.80020 | -0.35411 | 5987 ft | 260 kts | 149° |
| 2026-04-14 15:00 | 50.78524 | -0.33826 | 5988 ft | 260 kts | 149° |
| 2026-04-14 15:01 | 50.76969 | -0.32191 | 5988 ft | 260 kts | 150° |
| 2026-04-14 15:01 | 50.75464 | -0.30622 | 5989 ft | 261 kts | 150° |
| 2026-04-14 15:01 | 50.73980 | -0.29083 | 5989 ft | 261 kts | 150° |
| 2026-04-14 15:01 | 50.72421 | -0.27471 | 5993 ft | 261 kts | 150° |
| 2026-04-14 15:02 | 50.70895 | -0.25896 | 6064 ft | 266 kts | 150° |
| 2026-04-14 15:02 | 50.69278 | -0.24220 | 6730 ft | 271 kts | 149° |
| 2026-04-14 15:02 | 50.67685 | -0.22549 | 7627 ft | 271 kts | 149° |
| 2026-04-14 15:02 | 50.66083 | -0.20865 | 8392 ft | 275 kts | 149° |
| 2026-04-14 15:03 | 50.64456 | -0.19157 | 9141 ft | 279 kts | 149° |
| 2026-04-14 15:03 | 50.62816 | -0.17437 | 9880 ft | 283 kts | 149° |
| 2026-04-14 15:03 | 50.61267 | -0.15816 | 10539 ft | 287 kts | 149° |
| 2026-04-14 15:03 | 50.59546 | -0.14017 | 10948 ft | 303 kts | 149° |
| 2026-04-14 15:04 | 50.57755 | -0.12144 | 11467 ft | 312 kts | 149° |
| 2026-04-14 15:04 | 50.55873 | -0.10180 | 12141 ft | 317 kts | 148° |
| 2026-04-14 15:04 | 50.53989 | -0.08214 | 12796 ft | 321 kts | 148° |
| 2026-04-14 15:04 | 50.52093 | -0.06236 | 13425 ft | 326 kts | 148° |
| 2026-04-14 15:05 | 50.50190 | -0.04255 | 14038 ft | 330 kts | 149° |
| 2026-04-14 15:05 | 50.48288 | -0.02277 | 14636 ft | 333 kts | 149° |
| 2026-04-14 15:05 | 50.46366 | -0.00281 | 15242 ft | 336 kts | 148° |
| 2026-04-14 15:05 | 50.44423 | 0.01733 | 15813 ft | 340 kts | 148° |
| 2026-04-14 15:06 | 50.42443 | 0.03785 | 16380 ft | 344 kts | 148° |
| 2026-04-14 15:06 | 50.40437 | 0.05863 | 16925 ft | 347 kts | 148° |
| 2026-04-14 15:06 | 50.38376 | 0.07995 | 17446 ft | 352 kts | 148° |
| 2026-04-14 15:06 | 50.36247 | 0.10196 | 17980 ft | 355 kts | 148° |
| 2026-04-14 15:07 | 50.34139 | 0.12370 | 18502 ft | 359 kts | 148° |
| 2026-04-14 15:07 | 50.31985 | 0.14592 | 18971 ft | 364 kts | 147° |
| 2026-04-14 15:07 | 50.29805 | 0.16839 | 19425 ft | 369 kts | 147° |
| 2026-04-14 15:07 | 50.27567 | 0.19141 | 19889 ft | 373 kts | 147° |
| 2026-04-14 15:08 | 50.25325 | 0.21444 | 20351 ft | 377 kts | 147° |
| 2026-04-14 15:08 | 50.23037 | 0.23790 | 20798 ft | 381 kts | 147° |
| 2026-04-14 15:08 | 50.20701 | 0.26185 | 21249 ft | 386 kts | 147° |
| 2026-04-14 15:08 | 50.18441 | 0.28507 | 21664 ft | 390 kts | 147° |
| 2026-04-14 15:09 | 50.16144 | 0.30870 | 22079 ft | 394 kts | 147° |
| 2026-04-14 15:09 | 50.13812 | 0.33268 | 22491 ft | 398 kts | 147° |
| 2026-04-14 15:09 | 50.11407 | 0.35739 | 22907 ft | 402 kts | 146° |
| 2026-04-14 15:09 | 50.08967 | 0.38242 | 23299 ft | 406 kts | 147° |
| 2026-04-14 15:10 | 50.06490 | 0.40777 | 23704 ft | 411 kts | 146° |
| 2026-04-14 15:10 | 50.04018 | 0.43305 | 24081 ft | 415 kts | 146° |
| 2026-04-14 15:10 | 50.01550 | 0.45824 | 24487 ft | 418 kts | 146° |
| 2026-04-14 15:10 | 49.98981 | 0.48445 | 24887 ft | 422 kts | 146° |
| 2026-04-14 15:11 | 49.96460 | 0.51013 | 25284 ft | 425 kts | 146° |
| 2026-04-14 15:11 | 49.93852 | 0.53668 | 25675 ft | 429 kts | 146° |
| 2026-04-14 15:11 | 49.91246 | 0.56316 | 26074 ft | 431 kts | 146° |
| 2026-04-14 15:11 | 49.88636 | 0.58964 | 26434 ft | 435 kts | 146° |
| 2026-04-14 15:12 | 49.86091 | 0.61603 | 26773 ft | 438 kts | 143° |
| 2026-04-14 15:12 | 49.83538 | 0.64602 | 27132 ft | 440 kts | 139° |
| 2026-04-14 15:12 | 49.81033 | 0.67756 | 27472 ft | 443 kts | 139° |
| 2026-04-14 15:12 | 49.78561 | 0.70887 | 27810 ft | 445 kts | 139° |
| 2026-04-14 15:13 | 49.76112 | 0.73983 | 28112 ft | 449 kts | 139° |
| 2026-04-14 15:13 | 49.73632 | 0.77112 | 28432 ft | 451 kts | 139° |
| 2026-04-14 15:13 | 49.71121 | 0.80266 | 28792 ft | 452 kts | 139° |
| 2026-04-14 15:13 | 49.68545 | 0.83493 | 29078 ft | 456 kts | 139° |
| 2026-04-14 15:14 | 49.65952 | 0.86734 | 29377 ft | 458 kts | 139° |
| 2026-04-14 15:14 | 49.63332 | 0.90006 | 29681 ft | 461 kts | 139° |
| 2026-04-14 15:14 | 49.60685 | 0.93305 | 29958 ft | 464 kts | 139° |
| 2026-04-14 15:14 | 49.58039 | 0.96601 | 30248 ft | 466 kts | 139° |
| 2026-04-14 15:15 | 49.55344 | 0.99952 | 30501 ft | 469 kts | 139° |
| 2026-04-14 15:15 | 49.52684 | 1.03254 | 30757 ft | 471 kts | 139° |
| 2026-04-14 15:15 | 49.50013 | 1.06565 | 31007 ft | 474 kts | 139° |
| 2026-04-14 15:15 | 49.47300 | 1.09921 | 31258 ft | 476 kts | 139° |
| 2026-04-14 15:16 | 49.44544 | 1.13324 | 31518 ft | 478 kts | 139° |
| 2026-04-14 15:16 | 49.41793 | 1.16718 | 31768 ft | 480 kts | 139° |
| 2026-04-14 15:16 | 49.39054 | 1.20092 | 31991 ft | 482 kts | 138° |
| 2026-04-14 15:16 | 49.36298 | 1.23484 | 32232 ft | 484 kts | 138° |
| 2026-04-14 15:17 | 49.33504 | 1.26920 | 32456 ft | 486 kts | 138° |
| 2026-04-14 15:17 | 49.30676 | 1.30390 | 32669 ft | 488 kts | 139° |
| 2026-04-14 15:17 | 49.27876 | 1.33824 | 32902 ft | 490 kts | 139° |
| 2026-04-14 15:17 | 49.25052 | 1.37279 | 33109 ft | 492 kts | 138° |
| 2026-04-14 15:18 | 49.22223 | 1.40731 | 33302 ft | 494 kts | 138° |
| 2026-04-14 15:18 | 49.19362 | 1.44220 | 33514 ft | 496 kts | 138° |
| 2026-04-14 15:18 | 49.16537 | 1.47657 | 33694 ft | 498 kts | 138° |
| 2026-04-14 15:18 | 49.13688 | 1.51122 | 33910 ft | 499 kts | 137° |
| 2026-04-14 15:19 | 49.10820 | 1.54606 | 34187 ft | 498 kts | 137° |
| 2026-04-14 15:19 | 49.07977 | 1.58054 | 34447 ft | 498 kts | 137° |
| 2026-04-14 15:19 | 49.05151 | 1.61475 | 34691 ft | 498 kts | 138° |
| 2026-04-14 15:19 | 49.02262 | 1.64968 | 34954 ft | 498 kts | 137° |
| 2026-04-14 15:20 | 48.99405 | 1.68414 | 35193 ft | 498 kts | 139° |
| 2026-04-14 15:20 | 48.96612 | 1.71782 | 35411 ft | 498 kts | 138° |
| 2026-04-14 15:20 | 48.93840 | 1.75120 | 35602 ft | 499 kts | 138° |
| 2026-04-14 15:20 | 48.91031 | 1.78494 | 35784 ft | 499 kts | 139° |
| 2026-04-14 15:21 | 48.88245 | 1.81837 | 35935 ft | 500 kts | 139° |
| 2026-04-14 15:21 | 48.85426 | 1.85212 | 36064 ft | 501 kts | 138° |
| 2026-04-14 15:21 | 48.82660 | 1.88517 | 36200 ft | 501 kts | 138° |
| 2026-04-14 15:21 | 48.79834 | 1.91895 | 36362 ft | 502 kts | 138° |
| 2026-04-14 15:22 | 48.76972 | 1.95318 | 36469 ft | 504 kts | 138° |
| 2026-04-14 15:22 | 48.74114 | 1.98717 | 36582 ft | 505 kts | 138° |
| 2026-04-14 15:22 | 48.71228 | 2.02146 | 36756 ft | 505 kts | 138° |
| 2026-04-14 15:22 | 48.68316 | 2.05603 | 36925 ft | 505 kts | 138° |
| 2026-04-14 15:23 | 48.65411 | 2.09049 | 37058 ft | 505 kts | 138° |
| 2026-04-14 15:23 | 48.62491 | 2.12506 | 37173 ft | 506 kts | 138° |
| 2026-04-14 15:23 | 48.56525 | 2.19800 | 37175 ft | 509 kts | 134° |
| 2026-04-14 15:24 | 48.51110 | 2.27813 | 37169 ft | 511 kts | 129° |
| 2026-04-14 15:24 | 48.45874 | 2.35827 | 37174 ft | 515 kts | 129° |
| 2026-04-14 15:25 | 48.40518 | 2.43944 | 37175 ft | 519 kts | 130° |
| 2026-04-14 15:25 | 48.35120 | 2.52065 | 37168 ft | 521 kts | 130° |
| 2026-04-14 15:26 | 48.29282 | 2.59697 | 37168 ft | 526 kts | 139° |
| 2026-04-14 15:26 | 48.22769 | 2.66007 | 37167 ft | 530 kts | 148° |
| 2026-04-14 15:27 | 48.15944 | 2.71639 | 37173 ft | 530 kts | 149° |
| 2026-04-14 15:27 | 48.09059 | 2.77135 | 37171 ft | 530 kts | 151° |
| 2026-04-14 15:28 | 48.01915 | 2.81895 | 37170 ft | 531 kts | 155° |
| 2026-04-14 15:28 | 47.94718 | 2.86432 | 37158 ft | 530 kts | 155° |
| 2026-04-14 15:29 | 47.87580 | 2.90941 | 37153 ft | 530 kts | 155° |
| 2026-04-14 15:29 | 47.80476 | 2.95432 | 37157 ft | 530 kts | 155° |
| 2026-04-14 15:30 | 47.73194 | 3.00027 | 37159 ft | 530 kts | 155° |
| 2026-04-14 15:30 | 47.66029 | 3.04524 | 37158 ft | 530 kts | 155° |
| 2026-04-14 15:31 | 47.58882 | 3.09002 | 37162 ft | 529 kts | 155° |
| 2026-04-14 15:31 | 47.51728 | 3.13469 | 37161 ft | 528 kts | 155° |
| 2026-04-14 15:32 | 47.44605 | 3.17904 | 37161 ft | 527 kts | 155° |
| 2026-04-14 15:32 | 47.37528 | 3.22293 | 37160 ft | 527 kts | 154° |
| 2026-04-14 15:33 | 47.30416 | 3.26691 | 37160 ft | 526 kts | 155° |
| 2026-04-14 15:33 | 47.23365 | 3.31039 | 37159 ft | 524 kts | 154° |
| 2026-04-14 15:34 | 47.16262 | 3.35412 | 37149 ft | 524 kts | 155° |
| 2026-04-14 15:34 | 47.09212 | 3.39731 | 37155 ft | 523 kts | 154° |
| 2026-04-14 15:35 | 47.02143 | 3.44055 | 37152 ft | 523 kts | 154° |
| 2026-04-14 15:35 | 46.95094 | 3.48354 | 37146 ft | 522 kts | 155° |
| 2026-04-14 15:36 | 46.88034 | 3.52645 | 37139 ft | 522 kts | 154° |
| 2026-04-14 15:36 | 46.80967 | 3.56937 | 37140 ft | 521 kts | 153° |
| 2026-04-14 15:37 | 46.74568 | 3.62850 | 37138 ft | 510 kts | 132° |
| 2026-04-14 15:37 | 46.69980 | 3.71242 | 37145 ft | 493 kts | 112° |
| 2026-04-14 15:38 | 46.67513 | 3.80854 | 37148 ft | 477 kts | 96° |
| 2026-04-14 15:38 | 46.65946 | 3.90876 | 37141 ft | 478 kts | 96° |
| 2026-04-14 15:39 | 46.64285 | 4.00778 | 37137 ft | 478 kts | 97° |
| 2026-04-14 15:39 | 46.62568 | 4.10644 | 37142 ft | 478 kts | 97° |
| 2026-04-14 15:40 | 46.60846 | 4.20482 | 37135 ft | 477 kts | 97° |
| 2026-04-14 15:40 | 46.59124 | 4.30282 | 37141 ft | 477 kts | 97° |
| 2026-04-14 15:41 | 46.57381 | 4.40154 | 37133 ft | 477 kts | 97° |
| 2026-04-14 15:41 | 46.55645 | 4.49931 | 37148 ft | 477 kts | 97° |
| 2026-04-14 15:42 | 46.53893 | 4.59763 | 37141 ft | 478 kts | 98° |
| 2026-04-14 15:42 | 46.52131 | 4.69576 | 37132 ft | 478 kts | 99° |
| 2026-04-14 15:43 | 46.50337 | 4.79514 | 37137 ft | 479 kts | 98° |
| 2026-04-14 15:43 | 46.48551 | 4.89359 | 37144 ft | 478 kts | 99° |
| 2026-04-14 15:44 | 46.46762 | 4.99162 | 37148 ft | 478 kts | 99° |
| 2026-04-14 15:44 | 46.44971 | 5.08925 | 37144 ft | 478 kts | 99° |
| 2026-04-14 15:45 | 46.43163 | 5.18756 | 37147 ft | 478 kts | 99° |
| 2026-04-14 15:45 | 46.41331 | 5.28616 | 37137 ft | 479 kts | 100° |
| 2026-04-14 15:46 | 46.38882 | 5.38214 | 37125 ft | 485 kts | 109° |
| 2026-04-14 15:46 | 46.35387 | 5.47257 | 37123 ft | 490 kts | 119° |
| 2026-04-14 15:47 | 46.30928 | 5.55531 | 37116 ft | 493 kts | 126° |
| 2026-04-14 15:47 | 46.26191 | 5.63468 | 37110 ft | 494 kts | 126° |
| 2026-04-14 15:48 | 46.21456 | 5.71418 | 37103 ft | 494 kts | 127° |
| 2026-04-14 15:48 | 46.16742 | 5.79343 | 37097 ft | 493 kts | 127° |
| 2026-04-14 15:49 | 46.12011 | 5.87284 | 37104 ft | 492 kts | 127° |
| 2026-04-14 15:49 | 46.07289 | 5.95187 | 37118 ft | 492 kts | 127° |
| 2026-04-14 15:50 | 46.02574 | 6.03058 | 37117 ft | 491 kts | 127° |
| 2026-04-14 15:50 | 45.97821 | 6.10976 | 37120 ft | 491 kts | 127° |
| 2026-04-14 15:51 | 45.93102 | 6.18805 | 37119 ft | 490 kts | 127° |
| 2026-04-14 15:51 | 45.88388 | 6.26607 | 37116 ft | 490 kts | 127° |
| 2026-04-14 15:52 | 45.83608 | 6.34370 | 37103 ft | 491 kts | 130° |
| 2026-04-14 15:52 | 45.78308 | 6.41454 | 37096 ft | 494 kts | 137° |
| 2026-04-14 15:53 | 45.72494 | 6.47603 | 37087 ft | 494 kts | 142° |
| 2026-04-14 15:53 | 45.66545 | 6.53611 | 37078 ft | 494 kts | 142° |
| 2026-04-14 15:54 | 45.57652 | 6.62612 | 37070 ft | 493 kts | 142° |
| 2026-04-14 15:55 | 45.51771 | 6.68556 | 37051 ft | 492 kts | 142° |
| 2026-04-14 15:55 | 45.45898 | 6.74477 | 37065 ft | 491 kts | 142° |
| 2026-04-14 15:56 | 45.39986 | 6.80419 | 37062 ft | 491 kts | 142° |
| 2026-04-14 15:56 | 45.34096 | 6.86325 | 37050 ft | 490 kts | 142° |
| 2026-04-14 15:57 | 45.28218 | 6.92293 | 37049 ft | 488 kts | 140° |
| 2026-04-14 15:57 | 45.22822 | 6.98904 | 37057 ft | 486 kts | 133° |
| 2026-04-14 15:58 | 45.17733 | 7.05958 | 37050 ft | 486 kts | 133° |
| 2026-04-14 15:58 | 45.12826 | 7.12824 | 37030 ft | 484 kts | 131° |
| 2026-04-14 15:58 | 45.10471 | 7.16534 | 37163 ft | 483 kts | 127° |
| 2026-04-14 15:59 | 45.08272 | 7.20445 | 37084 ft | 479 kts | 124° |
| 2026-04-14 15:59 | 45.04213 | 7.28595 | 37052 ft | 477 kts | 122° |
| 2026-04-14 16:00 | 45.00192 | 7.36720 | 37047 ft | 477 kts | 122° |
| 2026-04-14 16:00 | 44.96145 | 7.44850 | 37030 ft | 477 kts | 122° |
| 2026-04-14 16:01 | 44.92142 | 7.52914 | 37011 ft | 477 kts | 122° |
| 2026-04-14 16:01 | 44.88128 | 7.60977 | 37004 ft | 477 kts | 122° |
| 2026-04-14 16:02 | 44.84157 | 7.68927 | 37003 ft | 476 kts | 123° |
| 2026-04-14 16:02 | 44.80181 | 7.76866 | 37000 ft | 475 kts | 123° |
| 2026-04-14 16:03 | 44.76230 | 7.84733 | 37000 ft | 475 kts | 123° |
| 2026-04-14 16:03 | 44.72243 | 7.92652 | 37000 ft | 475 kts | 123° |
| 2026-04-14 16:04 | 44.68269 | 8.00524 | 36994 ft | 475 kts | 123° |
| 2026-04-14 16:04 | 44.64291 | 8.08377 | 36995 ft | 474 kts | 123° |
| 2026-04-14 16:05 | 44.60399 | 8.16041 | 37004 ft | 473 kts | 123° |
| 2026-04-14 16:05 | 44.56592 | 8.23519 | 37000 ft | 473 kts | 123° |
| 2026-04-14 16:06 | 44.52799 | 8.30954 | 36992 ft | 472 kts | 123° |
| 2026-04-14 16:06 | 44.49000 | 8.38377 | 36994 ft | 473 kts | 124° |
| 2026-04-14 16:07 | 44.45207 | 8.45771 | 36987 ft | 472 kts | 124° |
| 2026-04-14 16:07 | 44.41407 | 8.53159 | 36985 ft | 472 kts | 124° |
| 2026-04-14 16:08 | 44.37605 | 8.60534 | 36978 ft | 472 kts | 124° |
| 2026-04-14 16:08 | 44.33806 | 8.67883 | 36968 ft | 472 kts | 124° |
| 2026-04-14 16:09 | 44.29993 | 8.75242 | 36963 ft | 472 kts | 124° |
| 2026-04-14 16:09 | 44.26172 | 8.82596 | 36954 ft | 472 kts | 124° |
| 2026-04-14 16:10 | 44.22327 | 8.89977 | 36956 ft | 471 kts | 124° |
| 2026-04-14 16:10 | 44.18489 | 8.97327 | 36957 ft | 471 kts | 125° |
| 2026-04-14 16:11 | 44.14663 | 9.04636 | 36958 ft | 471 kts | 125° |
| 2026-04-14 16:11 | 44.10817 | 9.11965 | 36957 ft | 470 kts | 125° |
| 2026-04-14 16:12 | 44.06965 | 9.19287 | 36949 ft | 471 kts | 125° |
| 2026-04-14 16:12 | 44.03128 | 9.26559 | 36944 ft | 471 kts | 125° |
| 2026-04-14 16:13 | 43.99290 | 9.33818 | 36939 ft | 471 kts | 125° |
| 2026-04-14 16:13 | 43.95444 | 9.41068 | 36939 ft | 471 kts | 125° |
| 2026-04-14 16:14 | 43.91594 | 9.48316 | 36935 ft | 470 kts | 125° |
| 2026-04-14 16:14 | 43.87763 | 9.55510 | 36933 ft | 470 kts | 126° |
| 2026-04-14 16:15 | 43.83904 | 9.62734 | 36933 ft | 469 kts | 126° |
| 2026-04-14 16:15 | 43.80049 | 9.69933 | 36929 ft | 468 kts | 126° |
| 2026-04-14 16:16 | 43.76220 | 9.77065 | 36935 ft | 468 kts | 126° |
| 2026-04-14 16:16 | 43.72375 | 9.84211 | 36927 ft | 467 kts | 126° |
| 2026-04-14 16:17 | 43.68515 | 9.91368 | 36923 ft | 466 kts | 126° |
| 2026-04-14 16:17 | 43.64680 | 9.98462 | 36929 ft | 466 kts | 126° |
| 2026-04-14 16:18 | 43.60822 | 10.05578 | 36939 ft | 465 kts | 126° |
| 2026-04-14 16:18 | 43.57024 | 10.12570 | 36937 ft | 464 kts | 126° |
| 2026-04-14 16:19 | 43.53192 | 10.19610 | 36939 ft | 464 kts | 126° |
| 2026-04-14 16:19 | 43.49357 | 10.26638 | 36934 ft | 463 kts | 126° |
| 2026-04-14 16:20 | 43.45546 | 10.33603 | 36936 ft | 462 kts | 127° |
| 2026-04-14 16:20 | 43.41703 | 10.40610 | 36935 ft | 462 kts | 127° |
| 2026-04-14 16:21 | 43.37888 | 10.47550 | 36934 ft | 462 kts | 127° |
| 2026-04-14 16:21 | 43.34022 | 10.54569 | 36933 ft | 461 kts | 127° |
| 2026-04-14 16:22 | 43.30226 | 10.61472 | 36936 ft | 458 kts | 126° |
| 2026-04-14 16:22 | 43.26754 | 10.68773 | 36935 ft | 458 kts | 121° |
| 2026-04-14 16:23 | 43.23714 | 10.76400 | 36934 ft | 456 kts | 119° |
| 2026-04-14 16:23 | 43.20648 | 10.84156 | 36931 ft | 456 kts | 119° |
| 2026-04-14 16:24 | 43.17600 | 10.91836 | 36929 ft | 455 kts | 119° |
| 2026-04-14 16:24 | 43.14545 | 10.99507 | 36929 ft | 455 kts | 119° |
| 2026-04-14 16:25 | 43.11463 | 11.07224 | 36932 ft | 455 kts | 119° |
| 2026-04-14 16:25 | 43.08349 | 11.14999 | 36936 ft | 454 kts | 119° |
| 2026-04-14 16:26 | 43.05244 | 11.22729 | 36929 ft | 453 kts | 119° |
| 2026-04-14 16:26 | 43.02149 | 11.30417 | 36934 ft | 453 kts | 119° |
| 2026-04-14 16:27 | 42.99080 | 11.38016 | 36932 ft | 453 kts | 119° |
| 2026-04-14 16:27 | 42.95983 | 11.45665 | 36920 ft | 452 kts | 119° |
| 2026-04-14 16:28 | 42.92934 | 11.53177 | 36953 ft | 452 kts | 119° |
| 2026-04-14 16:28 | 42.89835 | 11.60795 | 36934 ft | 452 kts | 119° |
| 2026-04-14 16:29 | 42.86761 | 11.68327 | 36933 ft | 451 kts | 120° |
| 2026-04-14 16:29 | 42.83655 | 11.75917 | 36943 ft | 452 kts | 120° |
| 2026-04-14 16:30 | 42.80548 | 11.83490 | 36921 ft | 452 kts | 120° |
| 2026-04-14 16:30 | 42.77358 | 11.91246 | 36927 ft | 452 kts | 120° |
| 2026-04-14 16:31 | 42.74287 | 11.98694 | 36920 ft | 452 kts | 120° |
| 2026-04-14 16:31 | 42.71188 | 12.06195 | 36952 ft | 452 kts | 120° |
| 2026-04-14 16:32 | 42.68096 | 12.13658 | 36922 ft | 452 kts | 120° |
| 2026-04-14 16:32 | 42.64978 | 12.21160 | 36921 ft | 452 kts | 121° |
| 2026-04-14 16:33 | 42.61740 | 12.28929 | 36929 ft | 452 kts | 121° |
| 2026-04-14 16:33 | 42.58557 | 12.36549 | 36920 ft | 452 kts | 121° |
| 2026-04-14 16:34 | 42.55371 | 12.44154 | 36754 ft | 452 kts | 121° |